sensor_id;sensor_type;location;lat;lon;timestamp;pressure;altitude;pressure_sealevel;temperature
12061;BMP180;6091;51.432;6.880;2023-12-07T00:00:21;101187.00;;;22.00
12061;BMP180;6091;51.432;6.880;2023-12-07T00:02:48;101199.00;;;21.90
12061;BMP180;6091;51.432;6.880;2023-12-07T00:05:15;101201.00;;;21.90
12061;BMP180;6091;51.432;6.880;2023-12-07T00:07:42;101203.00;;;21.90
12061;BMP180;6091;51.432;6.880;2023-12-07T00:10:09;101210.00;;;21.90
12061;BMP180;6091;51.432;6.880;2023-12-07T00:12:37;101201.00;;;21.90
12061;BMP180;6091;51.432;6.880;2023-12-07T00:15:05;101201.00;;;21.90
12061;BMP180;6091;51.432;6.880;2023-12-07T00:17:33;101204.00;;;21.90
12061;BMP180;6091;51.432;6.880;2023-12-07T00:20:01;101204.00;;;21.90
12061;BMP180;6091;51.432;6.880;2023-12-07T00:22:28;101199.00;;;21.90
12061;BMP180;6091;51.432;6.880;2023-12-07T00:24:57;101201.00;;;21.90
12061;BMP180;6091;51.432;6.880;2023-12-07T00:27:24;101197.00;;;21.80
12061;BMP180;6091;51.432;6.880;2023-12-07T00:29:51;101193.00;;;21.80
12061;BMP180;6091;51.432;6.880;2023-12-07T00:32:19;101190.00;;;21.80
12061;BMP180;6091;51.432;6.880;2023-12-07T00:34:46;101192.00;;;21.80
12061;BMP180;6091;51.432;6.880;2023-12-07T00:37:13;101189.00;;;21.80
12061;BMP180;6091;51.432;6.880;2023-12-07T00:39:41;101182.00;;;21.80
12061;BMP180;6091;51.432;6.880;2023-12-07T00:42:08;101179.00;;;21.80
12061;BMP180;6091;51.432;6.880;2023-12-07T00:44:42;101177.00;;;21.80
12061;BMP180;6091;51.432;6.880;2023-12-07T00:47:10;101186.00;;;21.80
12061;BMP180;6091;51.432;6.880;2023-12-07T00:49:40;101182.00;;;21.80
12061;BMP180;6091;51.432;6.880;2023-12-07T00:52:08;101183.00;;;21.80
12061;BMP180;6091;51.432;6.880;2023-12-07T00:54:35;101176.00;;;21.80
12061;BMP180;6091;51.432;6.880;2023-12-07T00:57:03;101182.00;;;21.70
12061;BMP180;6091;51.432;6.880;2023-12-07T00:59:30;101192.00;;;21.70
12061;BMP180;6091;51.432;6.880;2023-12-07T01:02:01;101190.00;;;21.70
12061;BMP180;6091;51.432;6.880;2023-12-07T01:04:29;101192.00;;;21.70
12061;BMP180;6091;51.432;6.880;2023-12-07T01:06:57;101190.00;;;21.70
12061;BMP180;6091;51.432;6.880;2023-12-07T01:09:25;101194.00;;;21.70
12061;BMP180;6091;51.432;6.880;2023-12-07T01:11:52;101196.00;;;21.70
12061;BMP180;6091;51.432;6.880;2023-12-07T01:14:19;101192.00;;;21.70
12061;BMP180;6091;51.432;6.880;2023-12-07T01:16:47;101199.00;;;21.70
12061;BMP180;6091;51.432;6.880;2023-12-07T01:19:14;101207.00;;;21.70
12061;BMP180;6091;51.432;6.880;2023-12-07T01:21:42;101203.00;;;21.70
12061;BMP180;6091;51.432;6.880;2023-12-07T01:24:09;101199.00;;;21.70
12061;BMP180;6091;51.432;6.880;2023-12-07T01:26:43;101197.00;;;21.60
12061;BMP180;6091;51.432;6.880;2023-12-07T01:29:10;101202.00;;;21.60
12061;BMP180;6091;51.432;6.880;2023-12-07T01:31:37;101193.00;;;21.60
12061;BMP180;6091;51.432;6.880;2023-12-07T01:34:04;101202.00;;;21.60
12061;BMP180;6091;51.432;6.880;2023-12-07T01:36:31;101193.00;;;21.60
12061;BMP180;6091;51.432;6.880;2023-12-07T01:39:02;101198.00;;;21.60
12061;BMP180;6091;51.432;6.880;2023-12-07T01:41:29;101199.00;;;21.60
12061;BMP180;6091;51.432;6.880;2023-12-07T01:43:56;101198.00;;;21.60
12061;BMP180;6091;51.432;6.880;2023-12-07T01:46:24;101199.00;;;21.60
12061;BMP180;6091;51.432;6.880;2023-12-07T01:48:51;101207.00;;;21.60
12061;BMP180;6091;51.432;6.880;2023-12-07T01:51:20;101198.00;;;21.60
12061;BMP180;6091;51.432;6.880;2023-12-07T01:53:49;101203.00;;;21.60
12061;BMP180;6091;51.432;6.880;2023-12-07T01:56:17;101213.00;;;21.50
12061;BMP180;6091;51.432;6.880;2023-12-07T01:58:45;101201.00;;;21.50
12061;BMP180;6091;51.432;6.880;2023-12-07T02:01:12;101205.00;;;21.50
12061;BMP180;6091;51.432;6.880;2023-12-07T02:03:40;101205.00;;;21.50
12061;BMP180;6091;51.432;6.880;2023-12-07T02:06:08;101208.00;;;21.50
12061;BMP180;6091;51.432;6.880;2023-12-07T02:08:36;101213.00;;;21.50
12061;BMP180;6091;51.432;6.880;2023-12-07T02:11:09;101221.00;;;21.50
12061;BMP180;6091;51.432;6.880;2023-12-07T02:13:39;101222.00;;;21.50
12061;BMP180;6091;51.432;6.880;2023-12-07T02:16:31;101215.00;;;21.50
12061;BMP180;6091;51.432;6.880;2023-12-07T02:22:10;101222.00;;;21.50
12061;BMP180;6091;51.432;6.880;2023-12-07T02:25:05;101225.00;;;21.40
12061;BMP180;6091;51.432;6.880;2023-12-07T02:27:43;101232.00;;;21.40
12061;BMP180;6091;51.432;6.880;2023-12-07T02:30:14;101228.00;;;21.40
12061;BMP180;6091;51.432;6.880;2023-12-07T02:32:44;101229.00;;;21.40
12061;BMP180;6091;51.432;6.880;2023-12-07T02:35:13;101234.00;;;21.40
12061;BMP180;6091;51.432;6.880;2023-12-07T02:37:49;101243.00;;;21.40
12061;BMP180;6091;51.432;6.880;2023-12-07T02:40:24;101233.00;;;21.40
12061;BMP180;6091;51.432;6.880;2023-12-07T02:42:54;101231.00;;;21.40
12061;BMP180;6091;51.432;6.880;2023-12-07T02:45:21;101231.00;;;21.40
12061;BMP180;6091;51.432;6.880;2023-12-07T02:47:48;101234.00;;;21.40
12061;BMP180;6091;51.432;6.880;2023-12-07T02:50:15;101237.00;;;21.40
12061;BMP180;6091;51.432;6.880;2023-12-07T02:52:43;101236.00;;;21.40
12061;BMP180;6091;51.432;6.880;2023-12-07T02:55:10;101227.00;;;21.40
12061;BMP180;6091;51.432;6.880;2023-12-07T02:57:38;101223.00;;;21.40
12061;BMP180;6091;51.432;6.880;2023-12-07T03:00:06;101222.00;;;21.40
12061;BMP180;6091;51.432;6.880;2023-12-07T03:02:36;101221.00;;;21.40
12061;BMP180;6091;51.432;6.880;2023-12-07T03:05:05;101220.00;;;21.40
12061;BMP180;6091;51.432;6.880;2023-12-07T03:07:33;101219.00;;;21.40
12061;BMP180;6091;51.432;6.880;2023-12-07T03:10:02;101209.00;;;21.30
12061;BMP180;6091;51.432;6.880;2023-12-07T03:12:30;101216.00;;;21.30
12061;BMP180;6091;51.432;6.880;2023-12-07T03:14:57;101222.00;;;21.30
12061;BMP180;6091;51.432;6.880;2023-12-07T03:17:24;101207.00;;;21.30
12061;BMP180;6091;51.432;6.880;2023-12-07T03:19:52;101215.00;;;21.30
12061;BMP180;6091;51.432;6.880;2023-12-07T03:22:19;101212.00;;;21.30
12061;BMP180;6091;51.432;6.880;2023-12-07T03:24:51;101204.00;;;21.30
12061;BMP180;6091;51.432;6.880;2023-12-07T03:27:19;101209.00;;;21.30
12061;BMP180;6091;51.432;6.880;2023-12-07T03:29:46;101212.00;;;21.30
12061;BMP180;6091;51.432;6.880;2023-12-07T03:32:13;101217.00;;;21.30
12061;BMP180;6091;51.432;6.880;2023-12-07T03:34:41;101216.00;;;21.30
12061;BMP180;6091;51.432;6.880;2023-12-07T03:37:08;101214.00;;;21.30
12061;BMP180;6091;51.432;6.880;2023-12-07T03:39:35;101218.00;;;21.30
12061;BMP180;6091;51.432;6.880;2023-12-07T03:42:02;101219.00;;;21.30
12061;BMP180;6091;51.432;6.880;2023-12-07T03:44:29;101223.00;;;21.30
12061;BMP180;6091;51.432;6.880;2023-12-07T03:46:57;101221.00;;;21.30
12061;BMP180;6091;51.432;6.880;2023-12-07T03:49:24;101222.00;;;21.20
12061;BMP180;6091;51.432;6.880;2023-12-07T03:51:54;101227.00;;;21.30
12061;BMP180;6091;51.432;6.880;2023-12-07T03:54:21;101218.00;;;21.20
12061;BMP180;6091;51.432;6.880;2023-12-07T03:56:48;101223.00;;;21.20
12061;BMP180;6091;51.432;6.880;2023-12-07T03:59:16;101225.00;;;21.20
12061;BMP180;6091;51.432;6.880;2023-12-07T04:01:43;101230.00;;;21.20
12061;BMP180;6091;51.432;6.880;2023-12-07T04:04:10;101219.00;;;21.20
12061;BMP180;6091;51.432;6.880;2023-12-07T04:06:37;101233.00;;;21.20
12061;BMP180;6091;51.432;6.880;2023-12-07T04:09:05;101225.00;;;21.20
12061;BMP180;6091;51.432;6.880;2023-12-07T04:11:32;101234.00;;;21.20
12061;BMP180;6091;51.432;6.880;2023-12-07T04:13:59;101237.00;;;21.20
12061;BMP180;6091;51.432;6.880;2023-12-07T04:16:26;101241.00;;;21.20
12061;BMP180;6091;51.432;6.880;2023-12-07T04:18:53;101223.00;;;21.20
12061;BMP180;6091;51.432;6.880;2023-12-07T04:21:20;101229.00;;;21.20
12061;BMP180;6091;51.432;6.880;2023-12-07T04:23:47;101232.00;;;21.20
12061;BMP180;6091;51.432;6.880;2023-12-07T04:26:14;101239.00;;;21.20
12061;BMP180;6091;51.432;6.880;2023-12-07T04:28:42;101238.00;;;21.20
12061;BMP180;6091;51.432;6.880;2023-12-07T04:31:11;101231.00;;;21.20
12061;BMP180;6091;51.432;6.880;2023-12-07T04:33:38;101230.00;;;21.20
12061;BMP180;6091;51.432;6.880;2023-12-07T04:36:06;101234.00;;;21.20
12061;BMP180;6091;51.432;6.880;2023-12-07T04:38:33;101237.00;;;21.20
12061;BMP180;6091;51.432;6.880;2023-12-07T04:41:00;101239.00;;;21.20
12061;BMP180;6091;51.432;6.880;2023-12-07T04:43:27;101238.00;;;21.20
12061;BMP180;6091;51.432;6.880;2023-12-07T04:45:54;101238.00;;;21.20
12061;BMP180;6091;51.432;6.880;2023-12-07T04:48:21;101249.00;;;21.20
12061;BMP180;6091;51.432;6.880;2023-12-07T04:50:48;101236.00;;;21.20
12061;BMP180;6091;51.432;6.880;2023-12-07T04:53:15;101245.00;;;21.10
12061;BMP180;6091;51.432;6.880;2023-12-07T04:55:42;101244.00;;;21.10
12061;BMP180;6091;51.432;6.880;2023-12-07T04:58:14;101242.00;;;21.10
12061;BMP180;6091;51.432;6.880;2023-12-07T05:00:41;101245.00;;;21.10
12061;BMP180;6091;51.432;6.880;2023-12-07T05:03:08;101247.00;;;21.10
12061;BMP180;6091;51.432;6.880;2023-12-07T05:05:36;101258.00;;;21.10
12061;BMP180;6091;51.432;6.880;2023-12-07T05:08:04;101248.00;;;21.10
12061;BMP180;6091;51.432;6.880;2023-12-07T05:10:31;101252.00;;;21.10
12061;BMP180;6091;51.432;6.880;2023-12-07T05:12:58;101252.00;;;21.10
12061;BMP180;6091;51.432;6.880;2023-12-07T05:15:26;101252.00;;;21.10
12061;BMP180;6091;51.432;6.880;2023-12-07T05:17:53;101245.00;;;21.10
12061;BMP180;6091;51.432;6.880;2023-12-07T05:20:20;101248.00;;;21.10
12061;BMP180;6091;51.432;6.880;2023-12-07T05:22:49;101251.00;;;21.10
12061;BMP180;6091;51.432;6.880;2023-12-07T05:25:17;101248.00;;;21.10
12061;BMP180;6091;51.432;6.880;2023-12-07T05:27:44;101248.00;;;21.10
12061;BMP180;6091;51.432;6.880;2023-12-07T05:30:12;101260.00;;;21.10
12061;BMP180;6091;51.432;6.880;2023-12-07T05:32:39;101267.00;;;21.10
12061;BMP180;6091;51.432;6.880;2023-12-07T05:35:07;101258.00;;;21.10
12061;BMP180;6091;51.432;6.880;2023-12-07T05:37:34;101262.00;;;21.10
12061;BMP180;6091;51.432;6.880;2023-12-07T05:40:01;101262.00;;;21.10
12061;BMP180;6091;51.432;6.880;2023-12-07T05:42:30;101254.00;;;21.10
12061;BMP180;6091;51.432;6.880;2023-12-07T05:44:57;101258.00;;;21.10
12061;BMP180;6091;51.432;6.880;2023-12-07T05:47:26;101253.00;;;21.10
12061;BMP180;6091;51.432;6.880;2023-12-07T05:49:53;101247.00;;;21.10
12061;BMP180;6091;51.432;6.880;2023-12-07T05:52:22;101249.00;;;21.10
12061;BMP180;6091;51.432;6.880;2023-12-07T05:54:49;101245.00;;;21.00
12061;BMP180;6091;51.432;6.880;2023-12-07T05:57:16;101236.00;;;21.10
12061;BMP180;6091;51.432;6.880;2023-12-07T05:59:44;101240.00;;;21.00
12061;BMP180;6091;51.432;6.880;2023-12-07T06:02:11;101242.00;;;21.10
12061;BMP180;6091;51.432;6.880;2023-12-07T06:04:38;101237.00;;;21.10
12061;BMP180;6091;51.432;6.880;2023-12-07T06:07:05;101234.00;;;21.10
12061;BMP180;6091;51.432;6.880;2023-12-07T06:09:32;101235.00;;;21.20
12061;BMP180;6091;51.432;6.880;2023-12-07T06:12:00;101244.00;;;21.20
12061;BMP180;6091;51.432;6.880;2023-12-07T06:14:29;101236.00;;;21.30
12061;BMP180;6091;51.432;6.880;2023-12-07T06:16:57;101241.00;;;21.40
12061;BMP180;6091;51.432;6.880;2023-12-07T06:19:26;101237.00;;;21.60
12061;BMP180;6091;51.432;6.880;2023-12-07T06:21:53;101228.00;;;21.70
12061;BMP180;6091;51.432;6.880;2023-12-07T06:24:20;101225.00;;;21.90
12061;BMP180;6091;51.432;6.880;2023-12-07T06:26:51;101236.00;;;22.10
12061;BMP180;6091;51.432;6.880;2023-12-07T06:29:19;101230.00;;;22.20
12061;BMP180;6091;51.432;6.880;2023-12-07T06:31:46;101231.00;;;22.40
12061;BMP180;6091;51.432;6.880;2023-12-07T06:34:13;101237.00;;;22.50
12061;BMP180;6091;51.432;6.880;2023-12-07T06:36:40;101228.00;;;22.70
12061;BMP180;6091;51.432;6.880;2023-12-07T06:39:07;101230.00;;;22.80
12061;BMP180;6091;51.432;6.880;2023-12-07T06:41:35;101229.00;;;22.90
12061;BMP180;6091;51.432;6.880;2023-12-07T06:44:02;101232.00;;;23.10
12061;BMP180;6091;51.432;6.880;2023-12-07T06:46:29;101236.00;;;23.20
12061;BMP180;6091;51.432;6.880;2023-12-07T06:48:56;101226.00;;;23.30
12061;BMP180;6091;51.432;6.880;2023-12-07T06:51:23;101231.00;;;23.40
12061;BMP180;6091;51.432;6.880;2023-12-07T06:53:50;101230.00;;;23.50
12061;BMP180;6091;51.432;6.880;2023-12-07T06:56:18;101234.00;;;23.60
12061;BMP180;6091;51.432;6.880;2023-12-07T06:58:45;101244.00;;;23.70
12061;BMP180;6091;51.432;6.880;2023-12-07T07:01:13;101243.00;;;23.80
12061;BMP180;6091;51.432;6.880;2023-12-07T07:03:41;101240.00;;;23.90
12061;BMP180;6091;51.432;6.880;2023-12-07T07:06:08;101235.00;;;24.00
12061;BMP180;6091;51.432;6.880;2023-12-07T07:08:35;101235.00;;;24.10
12061;BMP180;6091;51.432;6.880;2023-12-07T07:11:12;101238.00;;;24.20
12061;BMP180;6091;51.432;6.880;2023-12-07T07:13:41;101239.00;;;24.20
12061;BMP180;6091;51.432;6.880;2023-12-07T07:16:09;101238.00;;;24.30
12061;BMP180;6091;51.432;6.880;2023-12-07T07:18:38;101235.00;;;24.40
12061;BMP180;6091;51.432;6.880;2023-12-07T07:21:06;101222.00;;;24.40
12061;BMP180;6091;51.432;6.880;2023-12-07T07:23:35;101228.00;;;24.50
12061;BMP180;6091;51.432;6.880;2023-12-07T07:26:02;101229.00;;;24.60
12061;BMP180;6091;51.432;6.880;2023-12-07T07:28:29;101226.00;;;24.60
12061;BMP180;6091;51.432;6.880;2023-12-07T07:30:57;101225.00;;;24.70
12061;BMP180;6091;51.432;6.880;2023-12-07T07:33:25;101227.00;;;24.70
12061;BMP180;6091;51.432;6.880;2023-12-07T07:35:54;101224.00;;;24.80
12061;BMP180;6091;51.432;6.880;2023-12-07T07:38:24;101229.00;;;24.90
12061;BMP180;6091;51.432;6.880;2023-12-07T07:40:51;101227.00;;;24.90
12061;BMP180;6091;51.432;6.880;2023-12-07T07:43:18;101238.00;;;25.00
12061;BMP180;6091;51.432;6.880;2023-12-07T07:45:45;101238.00;;;25.00
12061;BMP180;6091;51.432;6.880;2023-12-07T07:48:13;101240.00;;;25.10
12061;BMP180;6091;51.432;6.880;2023-12-07T07:50:40;101238.00;;;25.10
12061;BMP180;6091;51.432;6.880;2023-12-07T07:53:07;101235.00;;;25.20
12061;BMP180;6091;51.432;6.880;2023-12-07T07:55:35;101235.00;;;25.20
12061;BMP180;6091;51.432;6.880;2023-12-07T07:58:02;101235.00;;;25.20
12061;BMP180;6091;51.432;6.880;2023-12-07T08:00:29;101240.00;;;25.30
12061;BMP180;6091;51.432;6.880;2023-12-07T08:02:57;101233.00;;;25.30
12061;BMP180;6091;51.432;6.880;2023-12-07T08:05:25;101236.00;;;25.30
12061;BMP180;6091;51.432;6.880;2023-12-07T08:07:52;101232.00;;;25.40
12061;BMP180;6091;51.432;6.880;2023-12-07T08:10:19;101228.00;;;25.50
12061;BMP180;6091;51.432;6.880;2023-12-07T08:12:47;101237.00;;;25.50
12061;BMP180;6091;51.432;6.880;2023-12-07T08:15:15;101244.00;;;25.50
12061;BMP180;6091;51.432;6.880;2023-12-07T08:17:42;101244.00;;;25.50
12061;BMP180;6091;51.432;6.880;2023-12-07T08:20:11;101243.00;;;25.50
12061;BMP180;6091;51.432;6.880;2023-12-07T08:22:40;101255.00;;;25.50
12061;BMP180;6091;51.432;6.880;2023-12-07T08:25:11;101266.00;;;25.50
12061;BMP180;6091;51.432;6.880;2023-12-07T08:27:39;101267.00;;;25.50
12061;BMP180;6091;51.432;6.880;2023-12-07T08:30:07;101266.00;;;25.50
12061;BMP180;6091;51.432;6.880;2023-12-07T08:32:37;101259.00;;;25.50
12061;BMP180;6091;51.432;6.880;2023-12-07T08:35:05;101252.00;;;25.50
12061;BMP180;6091;51.432;6.880;2023-12-07T08:37:33;101261.00;;;25.60
12061;BMP180;6091;51.432;6.880;2023-12-07T08:40:00;101260.00;;;25.60
12061;BMP180;6091;51.432;6.880;2023-12-07T08:42:28;101252.00;;;25.60
12061;BMP180;6091;51.432;6.880;2023-12-07T08:44:55;101253.00;;;25.70
12061;BMP180;6091;51.432;6.880;2023-12-07T08:47:22;101263.00;;;25.70
12061;BMP180;6091;51.432;6.880;2023-12-07T08:49:49;101273.00;;;25.70
12061;BMP180;6091;51.432;6.880;2023-12-07T08:52:18;101271.00;;;25.80
12061;BMP180;6091;51.432;6.880;2023-12-07T08:55:01;101280.00;;;25.80
12061;BMP180;6091;51.432;6.880;2023-12-07T08:57:28;101274.00;;;25.90
12061;BMP180;6091;51.432;6.880;2023-12-07T08:59:56;101276.00;;;25.90
12061;BMP180;6091;51.432;6.880;2023-12-07T09:02:23;101265.00;;;26.00
12061;BMP180;6091;51.432;6.880;2023-12-07T09:05:08;101268.00;;;26.00
12061;BMP180;6091;51.432;6.880;2023-12-07T09:07:36;101270.00;;;26.10
12061;BMP180;6091;51.432;6.880;2023-12-07T09:10:04;101270.00;;;26.10
12061;BMP180;6091;51.432;6.880;2023-12-07T09:12:32;101267.00;;;26.20
12061;BMP180;6091;51.432;6.880;2023-12-07T09:15:06;101256.00;;;26.20
12061;BMP180;6091;51.432;6.880;2023-12-07T09:17:39;101264.00;;;26.30
12061;BMP180;6091;51.432;6.880;2023-12-07T09:20:09;101265.00;;;26.30
12061;BMP180;6091;51.432;6.880;2023-12-07T09:22:45;101268.00;;;26.30
12061;BMP180;6091;51.432;6.880;2023-12-07T09:25:15;101270.00;;;26.30
12061;BMP180;6091;51.432;6.880;2023-12-07T09:27:43;101269.00;;;26.30
12061;BMP180;6091;51.432;6.880;2023-12-07T09:30:11;101264.00;;;26.30
12061;BMP180;6091;51.432;6.880;2023-12-07T09:32:42;101277.00;;;26.40
12061;BMP180;6091;51.432;6.880;2023-12-07T09:35:12;101270.00;;;26.30
12061;BMP180;6091;51.432;6.880;2023-12-07T09:37:43;101261.00;;;26.30
12061;BMP180;6091;51.432;6.880;2023-12-07T09:40:18;101260.00;;;26.30
12061;BMP180;6091;51.432;6.880;2023-12-07T09:42:49;101257.00;;;26.40
12061;BMP180;6091;51.432;6.880;2023-12-07T09:45:18;101245.00;;;26.40
12061;BMP180;6091;51.432;6.880;2023-12-07T09:47:52;101247.00;;;26.40
12061;BMP180;6091;51.432;6.880;2023-12-07T09:50:22;101250.00;;;26.40
12061;BMP180;6091;51.432;6.880;2023-12-07T09:52:52;101234.00;;;26.60
12061;BMP180;6091;51.432;6.880;2023-12-07T09:55:33;101246.00;;;26.50
12061;BMP180;6091;51.432;6.880;2023-12-07T09:58:04;101247.00;;;26.50
12061;BMP180;6091;51.432;6.880;2023-12-07T10:00:34;101244.00;;;26.50
12061;BMP180;6091;51.432;6.880;2023-12-07T10:03:07;101240.00;;;26.60
12061;BMP180;6091;51.432;6.880;2023-12-07T10:05:58;101238.00;;;26.60
12061;BMP180;6091;51.432;6.880;2023-12-07T10:08:32;101231.00;;;26.60
12061;BMP180;6091;51.432;6.880;2023-12-07T10:11:10;101231.00;;;26.70
12061;BMP180;6091;51.432;6.880;2023-12-07T10:13:40;101223.00;;;26.70
12061;BMP180;6091;51.432;6.880;2023-12-07T10:16:12;101214.00;;;26.80
12061;BMP180;6091;51.432;6.880;2023-12-07T10:18:40;101224.00;;;26.80
12061;BMP180;6091;51.432;6.880;2023-12-07T10:21:11;101218.00;;;26.80
12061;BMP180;6091;51.432;6.880;2023-12-07T10:23:42;101219.00;;;27.10
12061;BMP180;6091;51.432;6.880;2023-12-07T10:26:17;101216.00;;;27.00
12061;BMP180;6091;51.432;6.880;2023-12-07T10:28:50;101208.00;;;27.00
12061;BMP180;6091;51.432;6.880;2023-12-07T10:31:22;101204.00;;;27.10
12061;BMP180;6091;51.432;6.880;2023-12-07T10:33:51;101203.00;;;27.50
12061;BMP180;6091;51.432;6.880;2023-12-07T10:36:19;101203.00;;;27.30
12061;BMP180;6091;51.432;6.880;2023-12-07T10:38:46;101203.00;;;27.30
12061;BMP180;6091;51.432;6.880;2023-12-07T10:41:20;101196.00;;;27.30
12061;BMP180;6091;51.432;6.880;2023-12-07T10:44:01;101187.00;;;27.30
12061;BMP180;6091;51.432;6.880;2023-12-07T10:46:33;101187.00;;;27.30
12061;BMP180;6091;51.432;6.880;2023-12-07T10:49:12;101181.00;;;27.40
12061;BMP180;6091;51.432;6.880;2023-12-07T10:52:07;101170.00;;;27.40
12061;BMP180;6091;51.432;6.880;2023-12-07T10:54:51;101170.00;;;27.40
12061;BMP180;6091;51.432;6.880;2023-12-07T10:57:22;101173.00;;;27.50
12061;BMP180;6091;51.432;6.880;2023-12-07T10:59:52;101163.00;;;27.50
12061;BMP180;6091;51.432;6.880;2023-12-07T11:02:22;101168.00;;;27.50
12061;BMP180;6091;51.432;6.880;2023-12-07T11:04:51;101167.00;;;27.60
12061;BMP180;6091;51.432;6.880;2023-12-07T11:07:21;101156.00;;;27.60
12061;BMP180;6091;51.432;6.880;2023-12-07T11:10:13;101149.00;;;27.60
12061;BMP180;6091;51.432;6.880;2023-12-07T11:13:14;101141.00;;;27.70
12061;BMP180;6091;51.432;6.880;2023-12-07T11:15:44;101135.00;;;27.70
12061;BMP180;6091;51.432;6.880;2023-12-07T11:18:12;101137.00;;;27.80
12061;BMP180;6091;51.432;6.880;2023-12-07T11:20:43;101129.00;;;27.90
12061;BMP180;6091;51.432;6.880;2023-12-07T11:23:11;101124.00;;;27.90
12061;BMP180;6091;51.432;6.880;2023-12-07T11:25:39;101128.00;;;28.00
12061;BMP180;6091;51.432;6.880;2023-12-07T11:28:07;101124.00;;;28.10
12061;BMP180;6091;51.432;6.880;2023-12-07T11:30:36;101127.00;;;28.10
12061;BMP180;6091;51.432;6.880;2023-12-07T11:33:05;101116.00;;;28.20
12061;BMP180;6091;51.432;6.880;2023-12-07T11:35:33;101113.00;;;28.20
12061;BMP180;6091;51.432;6.880;2023-12-07T11:40:51;101107.00;;;28.40
12061;BMP180;6091;51.432;6.880;2023-12-07T11:46:01;101090.00;;;28.50
12061;BMP180;6091;51.432;6.880;2023-12-07T11:48:28;101089.00;;;28.60
12061;BMP180;6091;51.432;6.880;2023-12-07T11:51:00;101082.00;;;29.10
12061;BMP180;6091;51.432;6.880;2023-12-07T11:53:31;101078.00;;;28.90
12061;BMP180;6091;51.432;6.880;2023-12-07T11:56:01;101078.00;;;28.90
12061;BMP180;6091;51.432;6.880;2023-12-07T11:58:32;101076.00;;;29.00
12061;BMP180;6091;51.432;6.880;2023-12-07T12:01:05;101074.00;;;29.00
12061;BMP180;6091;51.432;6.880;2023-12-07T12:03:33;101071.00;;;29.10
12061;BMP180;6091;51.432;6.880;2023-12-07T12:06:04;101060.00;;;29.10
12061;BMP180;6091;51.432;6.880;2023-12-07T12:08:32;101061.00;;;29.20
12061;BMP180;6091;51.432;6.880;2023-12-07T12:10:59;101057.00;;;29.20
12061;BMP180;6091;51.432;6.880;2023-12-07T12:13:34;101054.00;;;29.20
12061;BMP180;6091;51.432;6.880;2023-12-07T12:16:03;101059.00;;;29.20
12061;BMP180;6091;51.432;6.880;2023-12-07T12:18:34;101066.00;;;29.20
12061;BMP180;6091;51.432;6.880;2023-12-07T12:21:07;101056.00;;;29.10
12061;BMP180;6091;51.432;6.880;2023-12-07T12:23:36;101058.00;;;29.10
12061;BMP180;6091;51.432;6.880;2023-12-07T12:26:07;101062.00;;;29.00
12061;BMP180;6091;51.432;6.880;2023-12-07T12:28:37;101065.00;;;28.90
12061;BMP180;6091;51.432;6.880;2023-12-07T12:31:11;101063.00;;;28.90
12061;BMP180;6091;51.432;6.880;2023-12-07T12:33:38;101053.00;;;28.80
12061;BMP180;6091;51.432;6.880;2023-12-07T12:36:08;101051.00;;;28.70
12061;BMP180;6091;51.432;6.880;2023-12-07T12:38:38;101044.00;;;28.60
12061;BMP180;6091;51.432;6.880;2023-12-07T12:41:10;101046.00;;;28.50
12061;BMP180;6091;51.432;6.880;2023-12-07T12:43:39;101037.00;;;28.40
12061;BMP180;6091;51.432;6.880;2023-12-07T12:46:07;101028.00;;;28.30
12061;BMP180;6091;51.432;6.880;2023-12-07T12:48:34;101022.00;;;28.20
12061;BMP180;6091;51.432;6.880;2023-12-07T12:51:13;101014.00;;;28.10
12061;BMP180;6091;51.432;6.880;2023-12-07T12:53:47;101016.00;;;28.10
12061;BMP180;6091;51.432;6.880;2023-12-07T12:56:19;101023.00;;;28.00
12061;BMP180;6091;51.432;6.880;2023-12-07T12:58:54;101013.00;;;28.00
12061;BMP180;6091;51.432;6.880;2023-12-07T13:01:32;101013.00;;;28.00
12061;BMP180;6091;51.432;6.880;2023-12-07T13:03:59;101008.00;;;28.00
12061;BMP180;6091;51.432;6.880;2023-12-07T13:06:26;101004.00;;;28.00
12061;BMP180;6091;51.432;6.880;2023-12-07T13:08:56;101003.00;;;28.00
12061;BMP180;6091;51.432;6.880;2023-12-07T13:11:24;101001.00;;;28.00
12061;BMP180;6091;51.432;6.880;2023-12-07T13:13:52;100994.00;;;28.00
12061;BMP180;6091;51.432;6.880;2023-12-07T13:16:20;100979.00;;;28.00
12061;BMP180;6091;51.432;6.880;2023-12-07T13:18:48;100997.00;;;28.00
12061;BMP180;6091;51.432;6.880;2023-12-07T13:21:16;100988.00;;;28.00
12061;BMP180;6091;51.432;6.880;2023-12-07T13:23:43;100991.00;;;28.00
12061;BMP180;6091;51.432;6.880;2023-12-07T13:26:14;100992.00;;;27.90
12061;BMP180;6091;51.432;6.880;2023-12-07T13:28:41;100980.00;;;27.90
12061;BMP180;6091;51.432;6.880;2023-12-07T13:31:09;100985.00;;;27.90
12061;BMP180;6091;51.432;6.880;2023-12-07T13:33:36;100984.00;;;27.80
12061;BMP180;6091;51.432;6.880;2023-12-07T13:36:19;100985.00;;;27.80
12061;BMP180;6091;51.432;6.880;2023-12-07T13:38:48;100976.00;;;27.70
12061;BMP180;6091;51.432;6.880;2023-12-07T13:41:15;100966.00;;;27.70
12061;BMP180;6091;51.432;6.880;2023-12-07T13:43:43;100967.00;;;27.60
12061;BMP180;6091;51.432;6.880;2023-12-07T13:46:11;100969.00;;;27.60
12061;BMP180;6091;51.432;6.880;2023-12-07T13:48:39;100971.00;;;27.60
12061;BMP180;6091;51.432;6.880;2023-12-07T13:51:07;100971.00;;;27.50
12061;BMP180;6091;51.432;6.880;2023-12-07T13:53:35;100968.00;;;27.50
12061;BMP180;6091;51.432;6.880;2023-12-07T13:56:03;100962.00;;;27.50
12061;BMP180;6091;51.432;6.880;2023-12-07T13:58:31;100958.00;;;27.50
12061;BMP180;6091;51.432;6.880;2023-12-07T14:00:59;100965.00;;;27.40
12061;BMP180;6091;51.432;6.880;2023-12-07T14:03:26;100947.00;;;27.40
12061;BMP180;6091;51.432;6.880;2023-12-07T14:05:54;100937.00;;;27.40
12061;BMP180;6091;51.432;6.880;2023-12-07T14:08:22;100928.00;;;27.40
12061;BMP180;6091;51.432;6.880;2023-12-07T14:10:49;100907.00;;;27.30
12061;BMP180;6091;51.432;6.880;2023-12-07T14:13:17;100900.00;;;27.30
12061;BMP180;6091;51.432;6.880;2023-12-07T14:15:45;100914.00;;;27.30
12061;BMP180;6091;51.432;6.880;2023-12-07T14:18:12;100909.00;;;27.20
12061;BMP180;6091;51.432;6.880;2023-12-07T14:20:42;100905.00;;;27.20
12061;BMP180;6091;51.432;6.880;2023-12-07T14:23:30;100882.00;;;27.20
12061;BMP180;6091;51.432;6.880;2023-12-07T14:25:58;100889.00;;;27.20
12061;BMP180;6091;51.432;6.880;2023-12-07T14:28:29;100890.00;;;27.10